Time;durP1;ratioP1;P1;durP2;ratioP2;P2;SDS_P1;SDS_P2;PMS_P1;PMS_P2;Temp;Humidity;BMP_temperature;BMP_pressure;BME280_temperature;BME280_humidity;BME280_pressure;Samples;Min_cycle;Max_cycle;Signal;HPM_P1;HPM_P2
2022/05/26 00:02:18;;;;;;;1.60;1.50;;;14.40;99.90;;;;;;4999433;28;20379;-75
2022/05/26 00:04:45;;;;;;;1.42;1.33;;;14.40;99.90;;;;;;4995898;28;20072;-75
2022/05/26 00:07:11;;;;;;;1.85;1.30;;;14.50;99.90;;;;;;4996226;28;20030;-76
2022/05/26 00:09:41;;;;;;;;;;;14.40;99.90;;;;;;4995034;28;20041;-76
2022/05/26 00:12:19;;;;;;;2.28;1.38;;;14.40;99.90;;;;;;5002151;28;19913;-75
2022/05/26 00:14:46;;;;;;;1.92;1.10;;;14.30;99.90;;;;;;4993283;28;20105;-76
2022/05/26 00:17:12;;;;;;;2.00;1.15;;;14.30;99.90;;;;;;5000157;28;20028;-75
2022/05/26 00:19:45;;;;;;;3.05;1.13;;;14.30;99.90;;;;;;4995790;28;20594;-76
2022/05/26 00:22:13;;;;;;;2.10;1.20;;;14.40;99.90;;;;;;4998206;28;20045;-75
2022/05/26 00:24:39;;;;;;;1.40;1.05;;;14.40;99.90;;;;;;4996851;28;20100;-75
2022/05/26 00:27:07;;;;;;;1.43;1.00;;;14.50;99.90;;;;;;5001420;28;20101;-76
2022/05/26 00:29:37;;;;;;;1.02;1.02;;;14.40;99.90;;;;;;4995767;28;20450;-76
2022/05/26 00:32:12;;;;;;;1.23;1.10;;;14.40;99.90;;;;;;4998932;28;20026;-75
2022/05/26 00:34:37;;;;;;;1.10;1.00;;;14.40;99.90;;;;;;4994816;28;20386;-76
2022/05/26 00:37:10;;;;;;;1.60;1.50;;;14.40;99.90;;;;;;5000893;28;20025;-76
2022/05/26 00:39:43;;;;;;;1.63;1.27;;;14.40;99.90;;;;;;4995343;28;20022;-76
2022/05/26 00:42:10;;;;;;;1.48;1.30;;;14.40;99.90;;;;;;5000630;28;20080;-75
2022/05/26 00:44:37;;;;;;;1.85;1.45;;;14.40;99.90;;;;;;4996014;28;20032;-77
2022/05/26 00:47:08;;;;;;;1.57;1.10;;;14.50;99.90;;;;;;5000628;28;20080;-75
2022/05/26 00:49:54;;;;;;;2.92;1.33;;;14.40;99.90;;;;;;4995346;28;20029;-76
2022/05/26 00:52:32;;;;;;;1.20;1.10;;;14.40;99.90;;;;;;4997832;28;20069;-75
2022/05/26 00:55:03;;;;;;;2.83;1.27;;;14.40;99.90;;;;;;4998729;28;20648;-75
2022/05/26 00:57:58;;;;;;;2.38;0.90;;;14.40;99.90;;;;;;4998810;28;20022;-76
2022/05/26 01:00:28;;;;;;;2.55;1.10;;;14.40;99.90;;;;;;4999155;28;20037;-75
2022/05/26 01:03:16;;;;;;;1.83;1.27;;;14.40;99.90;;;;;;4997970;28;20024;-75
2022/05/26 01:05:54;;;;;;;;;;;14.40;99.90;;;;;;4994344;28;20179;-75
2022/05/26 01:08:40;;;;;;;2.38;1.33;;;14.40;99.90;;;;;;4998886;28;19909;-75
2022/05/26 01:11:07;;;;;;;1.40;1.30;;;14.40;99.90;;;;;;4999580;28;20026;-75
2022/05/26 01:13:43;;;;;;;2.20;1.60;;;14.40;99.90;;;;;;4994953;28;20073;-76
2022/05/26 01:16:33;;;;;;;1.98;1.45;;;14.40;99.90;;;;;;4996475;28;20026;-76
2022/05/26 01:19:26;;;;;;;1.80;1.33;;;14.40;99.90;;;;;;5000223;28;20057;-76
2022/05/26 01:22:17;;;;;;;1.70;1.60;;;14.50;99.90;;;;;;4991756;28;20687;-75
2022/05/26 01:25:16;;;;;;;2.08;1.40;;;14.40;99.90;;;;;;4992279;28;20058;-76
2022/05/26 01:27:45;;;;;;;1.73;1.40;;;14.50;99.90;;;;;;4989014;28;20050;-76
2022/05/26 01:30:25;;;;;;;1.75;1.35;;;14.50;99.90;;;;;;4994409;28;20049;-76
2022/05/26 01:33:08;;;;;;;2.67;1.30;;;14.50;99.90;;;;;;4994324;28;20025;-76
2022/05/26 01:35:40;;;;;;;1.63;1.10;;;14.40;99.90;;;;;;4995042;28;20415;-75
2022/05/26 01:39:13;;;;;;;2.78;1.30;;;14.50;99.90;;;;;;5001461;28;20018;-75
2022/05/26 01:41:55;;;;;;;1.30;1.20;;;14.50;99.90;;;;;;4929395;29;20054;-75
2022/05/26 01:44:35;;;;;;;1.27;1.25;;;14.50;99.90;;;;;;4992248;28;20658;-76
2022/05/26 01:47:19;;;;;;;1.65;1.10;;;14.50;99.90;;;;;;4999271;28;20453;-76
2022/05/26 01:49:53;;;;;;;1.55;1.20;;;14.50;99.90;;;;;;4995512;28;20026;-76
2022/05/26 01:52:58;;;;;;;1.85;1.23;;;14.50;99.90;;;;;;5000399;28;20022;-75
2022/05/26 01:55:35;;;;;;;0.95;0.93;;;14.50;99.90;;;;;;4963061;28;20447;-75
2022/05/26 01:58:15;;;;;;;1.58;1.00;;;14.60;99.90;;;;;;4999631;28;20726;-75
2022/05/26 02:00:45;;;;;;;1.85;1.20;;;14.60;99.90;;;;;;4991871;28;20029;-75
2022/05/26 02:03:15;;;;;;;2.53;1.23;;;14.50;99.90;;;;;;4999473;28;20018;-75
2022/05/26 02:05:54;;;;;;;2.20;0.93;;;14.50;99.90;;;;;;4994694;28;20114;-75
2022/05/26 02:08:31;;;;;;;0.98;0.90;;;14.50;99.90;;;;;;4997746;28;20057;-76
2022/05/26 02:11:14;;;;;;;1.00;1.00;;;14.50;99.90;;;;;;4999651;28;20018;-75
2022/05/26 02:14:07;;;;;;;0.90;0.90;;;14.50;99.90;;;;;;4990772;28;20022;-76
2022/05/26 02:16:42;;;;;;;1.58;0.77;;;14.40;99.90;;;;;;4994038;28;20471;-76
2022/05/26 02:19:34;;;;;;;1.13;0.82;;;14.40;99.90;;;;;;4999386;28;20105;-76
2022/05/26 02:22:22;;;;;;;0.90;0.90;;;14.40;99.90;;;;;;4995898;28;20056;-76
2022/05/26 02:25:00;;;;;;;0.95;0.80;;;14.40;99.90;;;;;;4991836;28;20030;-75
2022/05/26 02:27:28;;;;;;;1.02;0.95;;;14.40;99.90;;;;;;4999808;28;20113;-77
2022/05/26 02:30:00;;;;;;;1.20;1.05;;;14.40;99.90;;;;;;4993490;28;20018;-76
2022/05/26 02:45:59;;;;;;;0.88;0.88;;;14.50;99.90;;;;;;4996472;28;20068;-75
2022/05/26 02:48:59;;;;;;;1.23;0.95;;;14.50;99.90;;;;;;4996238;28;20022;-75
2022/05/26 02:52:04;;;;;;;0.95;0.90;;;14.50;99.90;;;;;;4994164;28;20022;-76
2022/05/26 02:54:55;;;;;;;2.38;1.35;;;14.50;99.90;;;;;;4995542;28;20033;-76
2022/05/26 02:57:44;;;;;;;0.90;0.90;;;14.50;99.90;;;;;;4992588;28;20022;-75
2022/05/26 03:00:19;;;;;;;1.02;0.95;;;14.60;99.90;;;;;;4989923;28;20095;-76
2022/05/26 03:03:39;;;;;;;1.58;0.85;;;14.60;99.90;;;;;;4993697;28;20022;-76
2022/05/26 03:06:33;;;;;;;1.00;0.90;;;14.60;99.90;;;;;;4962073;28;20026;-76
2022/05/26 03:09:01;;;;;;;1.20;1.08;;;14.60;99.90;;;;;;4997031;28;20038;-75
2022/05/26 03:11:42;;;;;;;1.05;0.95;;;14.70;99.90;;;;;;4998296;28;20028;-76
2022/05/26 03:14:07;;;;;;;1.23;0.90;;;14.70;99.90;;;;;;4993214;28;20143;-75
2022/05/26 03:16:34;;;;;;;0.80;0.70;;;14.80;99.90;;;;;;4997062;28;20728;-75
2022/05/26 03:19:02;;;;;;;0.98;0.95;;;14.80;99.90;;;;;;4997480;28;20034;-75
2022/05/26 03:21:39;;;;;;;1.00;0.90;;;14.80;99.90;;;;;;4998633;28;20119;-75
2022/05/26 03:24:07;;;;;;;2.22;0.90;;;14.90;99.90;;;;;;4994347;28;20141;-75
2022/05/26 03:26:34;;;;;;;1.10;1.00;;;14.90;99.90;;;;;;4997541;28;20037;-75
2022/05/26 03:29:08;;;;;;;2.05;1.08;;;14.90;99.90;;;;;;4998126;28;20030;-76
2022/05/26 03:31:41;;;;;;;1.10;0.90;;;14.90;99.90;;;;;;4998563;28;20058;-75
2022/05/26 03:42:45;;;;;;;0.88;0.88;;;15.00;99.90;;;;;;4995083;28;20033;-76
2022/05/26 03:45:14;;;;;;;1.95;0.95;;;15.10;99.90;;;;;;4987829;28;20102;-76
2022/05/26 03:47:39;;;;;;;0.90;0.77;;;15.10;99.90;;;;;;4995534;28;20178;-75
2022/05/26 03:50:07;;;;;;;0.93;0.67;;;15.20;99.90;;;;;;4992545;28;20105;-75
2022/05/26 03:52:35;;;;;;;0.73;0.70;;;15.20;99.90;;;;;;4997006;28;20030;-77
2022/05/26 03:55:04;;;;;;;2.40;0.93;;;15.20;99.90;;;;;;4996332;28;20033;-75
2022/05/26 03:57:37;;;;;;;2.17;0.70;;;15.30;99.90;;;;;;4997741;28;20053;-75
2022/05/26 04:00:04;;;;;;;1.02;0.60;;;15.30;99.90;;;;;;4997412;28;21427;-76
2022/05/26 04:02:30;;;;;;;0.93;0.65;;;15.40;99.90;;;;;;4994870;28;20114;-75
2022/05/26 04:04:56;;;;;;;0.63;0.50;;;15.40;99.90;;;;;;4997489;28;20022;-76
2022/05/26 04:07:22;;;;;;;0.93;0.60;;;15.40;99.90;;;;;;4997613;28;20849;-76
2022/05/26 04:09:48;;;;;;;0.65;0.60;;;15.50;99.90;;;;;;5004095;28;20034;-76
2022/05/26 04:12:18;;;;;;;0.57;0.50;;;15.50;99.90;;;;;;4997411;28;20048;-75
2022/05/26 04:14:44;;;;;;;1.70;0.60;;;15.60;99.90;;;;;;5002166;28;20089;-76
2022/05/26 04:17:09;;;;;;;0.50;0.45;;;15.60;99.90;;;;;;4998760;28;20617;-77
2022/05/26 04:19:41;;;;;;;1.85;0.70;;;15.70;99.90;;;;;;5002620;28;20030;-76
2022/05/26 04:22:15;;;;;;;0.80;0.73;;;15.80;99.90;;;;;;4994712;28;20029;-76
2022/05/26 04:24:46;;;;;;;2.08;0.80;;;15.70;99.90;;;;;;5001778;28;20436;-76
2022/05/26 04:27:12;;;;;;;0.60;0.57;;;15.80;99.90;;;;;;4995286;28;20595;-76
2022/05/26 04:29:39;;;;;;;1.05;0.63;;;15.80;99.90;;;;;;5000449;28;20096;-76
2022/05/26 04:32:05;;;;;;;1.08;0.57;;;15.90;99.90;;;;;;5000736;28;20018;-75
2022/05/26 04:34:32;;;;;;;0.90;0.40;;;15.90;99.90;;;;;;4999714;28;20072;-76
2022/05/26 04:36:59;;;;;;;2.15;0.73;;;16.00;99.90;;;;;;4999999;28;20034;-75
2022/05/26 04:39:32;;;;;;;0.55;0.55;;;16.00;99.90;;;;;;4997750;28;20761;-76
2022/05/26 04:42:00;;;;;;;1.17;0.50;;;16.10;99.90;;;;;;5001164;28;20070;-76
2022/05/26 04:44:39;;;;;;;0.88;0.73;;;16.10;99.90;;;;;;4996112;28;20837;-76
2022/05/26 04:47:05;;;;;;;0.68;0.68;;;16.20;99.90;;;;;;5001092;28;20443;-76
2022/05/26 04:49:38;;;;;;;0.40;0.40;;;16.20;99.90;;;;;;4997469;28;20054;-76
2022/05/26 04:52:10;;;;;;;0.80;0.40;;;16.40;99.90;;;;;;5000497;28;20041;-76
2022/05/26 04:54:45;;;;;;;0.57;0.38;;;16.50;99.90;;;;;;5000410;28;20037;-77
2022/05/26 04:57:13;;;;;;;2.03;0.30;;;16.70;99.90;;;;;;4994856;28;20022;-77
2022/05/26 04:59:46;;;;;;;2.00;0.57;;;16.70;99.90;;;;;;5001201;28;20025;-76
2022/05/26 05:02:20;;;;;;;0.73;0.50;;;16.90;99.90;;;;;;4993863;28;20018;-75
2022/05/26 05:04:53;;;;;;;1.15;0.50;;;17.00;99.90;;;;;;4999836;28;20018;-76
2022/05/26 05:07:21;;;;;;;1.00;0.50;;;17.20;99.90;;;;;;4994720;28;20018;-76
2022/05/26 05:09:48;;;;;;;1.58;0.60;;;17.30;99.90;;;;;;4999890;28;20423;-76
2022/05/26 05:12:19;;;;;;;2.90;1.20;;;17.40;99.90;;;;;;4996936;28;20018;-77
2022/05/26 05:14:50;;;;;;;0.50;0.50;;;17.50;99.90;;;;;;4995676;28;20075;-76
2022/05/26 05:17:18;;;;;;;0.45;0.45;;;17.60;99.90;;;;;;4995208;28;20709;-76
2022/05/26 05:19:51;;;;;;;0.50;0.50;;;17.70;99.90;;;;;;5000831;28;20021;-76
2022/05/26 05:22:38;;;;;;;1.45;0.40;;;17.80;99.90;;;;;;4992077;28;20013;-76
2022/05/26 05:25:08;;;;;;;0.50;0.50;;;17.90;99.90;;;;;;4999108;28;20014;-76
2022/05/26 05:27:58;;;;;;;1.73;0.80;;;17.90;99.90;;;;;;4998419;28;20041;-76
2022/05/26 05:30:48;;;;;;;0.40;0.40;;;18.10;99.90;;;;;;4991664;28;20018;-76
2022/05/26 05:33:37;;;;;;;1.75;0.52;;;18.30;99.90;;;;;;4995192;28;20088;-77
2022/05/26 05:36:27;;;;;;;0.80;0.50;;;18.50;99.90;;;;;;4997516;28;20770;-76
2022/05/26 05:39:03;;;;;;;0.40;0.30;;;18.70;99.90;;;;;;4997503;28;20101;-76
2022/05/26 05:41:33;;;;;;;1.90;0.60;;;19.00;99.60;;;;;;4995010;28;20553;-76
2022/05/26 05:44:01;;;;;;;1.92;0.57;;;19.20;99.20;;;;;;4999195;28;20276;-76
2022/05/26 05:46:53;;;;;;;2.25;0.65;;;19.40;98.50;;;;;;4995882;28;20068;-77
2022/05/26 05:49:28;;;;;;;1.27;0.55;;;19.80;97.90;;;;;;4992746;28;20014;-77
2022/05/26 05:52:02;;;;;;;0.52;0.50;;;20.30;96.90;;;;;;4999913;28;20564;-76
2022/05/26 05:54:31;;;;;;;1.90;0.30;;;21.30;95.80;;;;;;4994833;28;20092;-77
2022/05/26 05:57:02;;;;;;;0.47;0.47;;;23.20;92.60;;;;;;4998400;28;20022;-77
2022/05/26 05:59:28;;;;;;;0.40;0.30;;;24.60;88.90;;;;;;4994083;28;20631;-77
2022/05/26 06:01:55;;;;;;;1.40;0.30;;;26.70;81.20;;;;;;4998350;28;20025;-77
2022/05/26 06:04:21;;;;;;;0.45;0.45;;;28.80;73.30;;;;;;4993248;28;20021;-77
2022/05/26 06:06:46;;;;;;;0.50;0.50;;;30.20;66.10;;;;;;4998402;28;20080;-76
2022/05/26 06:09:18;;;;;;;0.25;0.25;;;31.20;62.70;;;;;;4994387;28;20505;-77
2022/05/26 06:11:46;;;;;;;1.40;0.15;;;31.90;59.40;;;;;;4995082;28;20033;-77
2022/05/26 06:14:12;;;;;;;1.13;0.20;;;31.80;56.90;;;;;;4991642;28;20021;-77
2022/05/26 06:16:38;;;;;;;1.13;0.40;;;30.50;57.40;;;;;;4999306;28;20471;-77
2022/05/26 06:19:11;;;;;;;0.43;0.35;;;30.30;58.40;;;;;;4998631;28;20467;-77
2022/05/26 06:21:37;;;;;;;0.30;0.30;;;30.70;57.60;;;;;;4996951;28;20026;-78
2022/05/26 06:24:10;;;;;;;0.50;0.50;;;31.40;56.00;;;;;;4997393;28;20042;-77
2022/05/26 06:26:37;;;;;;;0.40;0.30;;;31.90;55.20;;;;;;4995559;28;20028;-77
2022/05/26 06:37:28;;;;;;;0.28;0.28;;;32.30;52.90;;;;;;4989879;28;20088;-77
2022/05/26 06:39:59;;;;;;;0.63;0.40;;;32.90;52.60;;;;;;4997849;28;20427;-77
2022/05/26 06:42:26;;;;;;;0.50;0.40;;;33.40;50.50;;;;;;4993672;28;20018;-77
2022/05/26 06:44:53;;;;;;;1.30;0.40;;;33.60;50.10;;;;;;4997282;28;20029;-77
2022/05/26 06:47:23;;;;;;;0.80;0.40;;;33.60;50.50;;;;;;4994831;28;20022;-77
2022/05/26 06:49:51;;;;;;;1.00;0.40;;;33.70;50.80;;;;;;4998133;28;20151;-78
2022/05/26 06:52:21;;;;;;;0.47;0.30;;;33.80;49.80;;;;;;4995018;28;20026;-77
2022/05/26 06:54:47;;;;;;;2.42;0.50;;;34.00;49.80;;;;;;4998793;28;20073;-77
2022/05/26 06:57:22;;;;;;;0.77;0.50;;;34.60;48.60;;;;;;4999524;28;20049;-77
2022/05/26 06:59:50;;;;;;;0.93;0.47;;;35.00;47.60;;;;;;4999306;28;20021;-76
2022/05/26 07:02:17;;;;;;;1.50;0.40;;;35.40;46.80;;;;;;4995976;28;20104;-77
2022/05/26 07:04:44;;;;;;;0.47;0.47;;;35.30;46.40;;;;;;4997087;28;20853;-78
2022/05/26 07:07:13;;;;;;;0.32;0.32;;;35.10;46.80;;;;;;4995906;28;20033;-77
2022/05/26 07:09:41;;;;;;;0.40;0.30;;;34.60;46.60;;;;;;4994082;28;20666;-77
2022/05/26 07:12:09;;;;;;;2.17;0.52;;;34.20;46.60;;;;;;4999484;28;20030;-77
2022/05/26 07:14:35;;;;;;;1.40;0.60;;;33.30;47.40;;;;;;4993398;28;20029;-76
2022/05/26 07:17:04;;;;;;;1.40;0.32;;;33.20;48.20;;;;;;4998050;28;20018;-77
2022/05/26 07:19:36;;;;;;;1.98;0.60;;;33.50;47.80;;;;;;4995069;28;20030;-77
2022/05/26 07:22:11;;;;;;;1.75;0.50;;;33.60;47.20;;;;;;4997992;28;20095;-77
2022/05/26 07:24:38;;;;;;;0.60;0.43;;;33.50;47.30;;;;;;4994986;28;20014;-76
2022/05/26 07:27:04;;;;;;;3.58;0.70;;;32.80;47.90;;;;;;4998335;28;20169;-77
2022/05/26 07:29:32;;;;;;;0.50;0.50;;;32.10;48.40;;;;;;4993931;28;20044;-77
2022/05/26 07:32:01;;;;;;;0.57;0.50;;;31.40;49.70;;;;;;4997859;28;20388;-76
2022/05/26 07:34:29;;;;;;;1.40;0.43;;;31.10;49.80;;;;;;4992727;28;20022;-77
2022/05/26 07:42:32;;;;;;;1.30;0.38;;;32.30;48.90;;;;;;4996688;28;20029;-77
2022/05/26 07:45:07;;;;;;;0.77;0.40;;;33.20;48.30;;;;;;5002477;28;20428;-77
2022/05/26 07:47:33;;;;;;;1.05;0.30;;;33.80;46.50;;;;;;4998094;28;20232;-78
2022/05/26 07:50:02;;;;;;;0.20;0.20;;;33.60;46.40;;;;;;5002009;28;20695;-78
2022/05/26 07:52:31;;;;;;;0.50;0.40;;;34.10;46.50;;;;;;4997604;28;20053;-77
2022/05/26 07:55:00;;;;;;;0.47;0.47;;;34.00;46.20;;;;;;5001431;28;20057;-77
2022/05/26 07:57:35;;;;;;;2.35;0.60;;;34.00;45.90;;;;;;4998230;28;20018;-77
2022/05/26 08:00:04;;;;;;;0.45;0.30;;;33.30;45.80;;;;;;5001587;28;20547;-77
2022/05/26 08:02:40;;;;;;;2.58;0.50;;;32.20;46.80;;;;;;4998028;28;20030;-77
2022/05/26 08:05:08;;;;;;;0.57;0.40;;;32.10;46.60;;;;;;5001905;28;20101;-77
2022/05/26 08:07:35;;;;;;;0.43;0.30;;;31.50;47.80;;;;;;4997151;28;20068;-76
2022/05/26 08:10:01;;;;;;;1.83;0.40;;;31.00;48.30;;;;;;5002134;28;20030;-77
2022/05/26 08:12:28;;;;;;;1.20;0.40;;;30.80;49.10;;;;;;4997713;28;20374;-76
2022/05/26 08:14:53;;;;;;;2.38;0.35;;;31.00;48.80;;;;;;5002011;28;20022;-76
2022/05/26 08:17:22;;;;;;;0.30;0.30;;;30.70;48.10;;;;;;4997847;28;20021;-76
2022/05/26 08:19:53;;;;;;;0.40;0.38;;;30.60;48.50;;;;;;5000413;28;20022;-76
2022/05/26 08:22:24;;;;;;;1.83;0.40;;;30.80;48.10;;;;;;4998058;28;20107;-77
2022/05/26 08:24:56;;;;;;;0.38;0.38;;;31.50;47.10;;;;;;5000071;28;20014;-77
2022/05/26 08:27:22;;;;;;;1.15;0.50;;;31.30;47.80;;;;;;4996547;28;20053;-76
2022/05/26 08:29:51;;;;;;;1.17;0.30;;;31.40;47.50;;;;;;5001491;28;20117;-77
2022/05/26 08:32:18;;;;;;;5.47;0.55;;;30.80;47.80;;;;;;5002054;28;20044;-76
2022/05/26 08:34:58;;;;;;;0.47;0.30;;;30.10;48.80;;;;;;4998513;28;20029;-76
2022/05/26 08:37:31;;;;;;;1.48;0.35;;;30.10;49.50;;;;;;4995933;28;20021;-77
2022/05/26 08:39:58;;;;;;;0.32;0.30;;;29.90;49.80;;;;;;5001550;28;20022;-76
2022/05/26 08:42:34;;;;;;;1.00;0.45;;;29.40;49.90;;;;;;4995812;28;20042;-77
2022/05/26 08:45:13;;;;;;;2.08;0.50;;;28.80;51.50;;;;;;4999742;28;20045;-76
2022/05/26 08:47:51;;;;;;;0.50;0.50;;;29.50;50.90;;;;;;4996274;28;20514;-77
2022/05/26 08:50:31;;;;;;;0.80;0.60;;;30.50;49.80;;;;;;5000034;28;20082;-77
2022/05/26 08:53:32;;;;;;;0.63;0.60;;;31.40;48.20;;;;;;5000766;28;20403;-77
2022/05/26 08:56:00;;;;;;;1.17;0.73;;;32.00;47.30;;;;;;5000500;28;20030;-77
2022/05/26 08:58:34;;;;;;;0.68;0.40;;;32.00;46.70;;;;;;4996551;28;20029;-77
2022/05/26 09:01:06;;;;;;;0.82;0.50;;;32.20;47.80;;;;;;5001508;28;20092;-77
2022/05/26 09:03:39;;;;;;;0.60;0.60;;;32.90;46.40;;;;;;4997279;28;20080;-76
2022/05/26 09:06:25;;;;;;;2.03;0.63;;;32.80;45.80;;;;;;5000661;28;20018;-77
2022/05/26 09:14:28;;;;;;;0.90;0.63;;;33.60;45.20;;;;;;5000305;28;20030;-77
2022/05/26 09:17:04;;;;;;;1.35;0.50;;;33.50;45.10;;;;;;5001283;28;20073;-77
2022/05/26 09:19:45;;;;;;;;;;;33.60;45.60;;;;;;4996591;28;20137;-78
2022/05/26 09:22:44;;;;;;;0.85;0.50;;;33.10;45.50;;;;;;5000204;28;19905;-77
2022/05/26 09:25:32;;;;;;;2.25;0.52;;;33.10;44.50;;;;;;4994350;28;20017;-77
2022/05/26 09:28:00;;;;;;;0.57;0.50;;;32.70;45.10;;;;;;4998224;28;20036;-77
2022/05/26 09:30:31;;;;;;;1.70;0.57;;;32.80;45.00;;;;;;4994309;28;20575;-78
2022/05/26 09:32:58;;;;;;;1.90;0.70;;;32.70;45.40;;;;;;5000095;28;20029;-77
2022/05/26 09:35:34;;;;;;;1.80;0.60;;;32.30;45.90;;;;;;4994574;28;20378;-77
2022/05/26 09:38:17;;;;;;;0.50;0.50;;;32.20;46.60;;;;;;5000463;28;20022;-77
2022/05/26 09:40:52;;;;;;;0.60;0.60;;;32.40;46.40;;;;;;4994798;28;20022;-77
2022/05/26 09:43:26;;;;;;;1.05;0.77;;;32.70;46.30;;;;;;4997324;28;20022;-77
2022/05/26 09:45:56;;;;;;;1.42;0.82;;;33.50;45.50;;;;;;4999776;28;20026;-78
2022/05/26 09:48:35;;;;;;;2.38;0.95;;;34.00;44.60;;;;;;4998507;28;20025;-78
2022/05/26 09:51:16;;;;;;;1.95;1.00;;;34.20;44.70;;;;;;5000063;28;20022;-78
2022/05/26 09:53:45;;;;;;;1.45;0.80;;;34.00;44.50;;;;;;4991207;28;20022;-77
2022/05/26 09:56:13;;;;;;;1.52;0.77;;;33.10;45.40;;;;;;4997283;28;20033;-77
2022/05/26 09:58:42;;;;;;;2.15;0.80;;;33.30;45.60;;;;;;4995961;28;20071;-78
2022/05/26 10:01:23;;;;;;;1.70;0.70;;;33.50;44.70;;;;;;4998347;28;20053;-77
2022/05/26 10:04:05;;;;;;;1.77;1.15;;;33.30;45.30;;;;;;4993268;28;20036;-78
2022/05/26 10:06:36;;;;;;;3.42;0.65;;;32.80;45.60;;;;;;4995074;28;20137;-77
2022/05/26 10:09:20;;;;;;;2.15;1.10;;;32.10;46.50;;;;;;4999129;28;20109;-77
2022/05/26 10:12:22;;;;;;;1.98;1.08;;;31.70;47.20;;;;;;4995801;28;20068;-77
2022/05/26 10:15:34;;;;;;;0.88;0.80;;;31.70;46.80;;;;;;4993451;28;20583;-77
2022/05/26 10:18:24;;;;;;;2.08;0.93;;;31.90;47.30;;;;;;4977065;28;21477;-77
2022/05/26 10:21:09;;;;;;;2.67;0.80;;;31.70;48.00;;;;;;4997709;28;20116;-77
2022/05/26 10:23:55;;;;;;;0.82;0.82;;;32.10;47.80;;;;;;4995605;28;20037;-78
2022/05/26 10:26:26;;;;;;;2.45;0.77;;;32.40;46.90;;;;;;4997832;28;20025;-77
2022/05/26 10:29:31;;;;;;;2.22;0.80;;;32.30;46.10;;;;;;4999392;28;20018;-77
2022/05/26 10:32:07;;;;;;;1.88;0.90;;;32.10;45.20;;;;;;4999432;28;20514;-77
2022/05/26 10:34:56;;;;;;;2.65;0.90;;;31.70;45.40;;;;;;4994122;28;20030;-77
2022/05/26 10:37:48;;;;;;;0.77;0.77;;;31.80;46.50;;;;;;4997416;28;20102;-77
2022/05/26 10:40:37;;;;;;;0.65;0.60;;;32.20;45.70;;;;;;4996415;28;20816;-77
2022/05/26 10:43:12;;;;;;;3.22;0.60;;;32.20;44.20;;;;;;4997056;28;20025;-77
2022/05/26 10:45:38;;;;;;;1.88;0.63;;;31.70;44.80;;;;;;4993521;28;20029;-77
2022/05/26 10:48:20;;;;;;;1.65;0.60;;;31.40;44.50;;;;;;4998024;28;20026;-77
2022/05/26 10:51:18;;;;;;;1.05;0.50;;;31.20;44.40;;;;;;4992485;28;20022;-76
2022/05/26 10:53:52;;;;;;;0.95;0.65;;;30.70;44.30;;;;;;4989691;28;20006;-79
2022/05/26 10:56:26;;;;;;;1.20;0.60;;;30.10;45.70;;;;;;4996367;28;20045;-79
2022/05/26 10:59:04;;;;;;;0.70;0.70;;;29.50;46.30;;;;;;4997021;28;20088;-76
2022/05/26 11:01:51;;;;;;;1.45;0.60;;;29.00;47.80;;;;;;4993755;28;20018;-76
2022/05/26 11:04:40;;;;;;;2.55;1.00;;;28.40;48.00;;;;;;4995212;28;20085;-76
2022/05/26 11:07:12;;;;;;;3.35;0.90;;;27.70;49.10;;;;;;4998757;28;20037;-78
2022/05/26 11:10:02;;;;;;;3.42;0.80;;;27.40;49.60;;;;;;4993274;28;20044;-78
2022/05/26 11:12:41;;;;;;;1.25;0.80;;;27.30;50.60;;;;;;4992935;28;20021;-76
2022/05/26 11:18:26;;;;;;;2.70;0.70;;;27.00;49.50;;;;;;5000029;28;20041;-76
2022/05/26 11:20:56;;;;;;;1.60;0.90;;;26.90;50.00;;;;;;4997827;28;20032;-76
2022/05/26 11:23:31;;;;;;;2.28;0.88;;;26.80;50.10;;;;;;5001965;28;20479;-76
2022/05/26 11:26:23;;;;;;;1.25;0.80;;;26.70;51.10;;;;;;5003057;28;20022;-76
2022/05/26 11:29:00;;;;;;;1.42;1.00;;;26.70;50.90;;;;;;4994099;28;20480;-77
2022/05/26 11:37:20;;;;;;;2.55;0.77;;;26.80;50.00;;;;;;5002083;28;20076;-77
2022/05/26 11:39:52;;;;;;;1.45;0.73;;;26.60;50.80;;;;;;4990752;28;20061;-76
2022/05/26 11:42:28;;;;;;;0.95;0.63;;;26.70;51.80;;;;;;4995931;28;20076;-76
2022/05/26 11:44:56;;;;;;;1.97;0.70;;;26.60;50.00;;;;;;5000430;28;20117;-75
2022/05/26 11:47:47;;;;;;;2.08;0.60;;;26.60;49.80;;;;;;5000858;28;20025;-76
2022/05/26 11:50:22;;;;;;;0.57;0.57;;;26.50;49.50;;;;;;4999087;28;20025;-76
2022/05/26 11:52:56;;;;;;;3.63;0.77;;;26.50;50.60;;;;;;4994486;28;20049;-75
2022/05/26 11:55:50;;;;;;;1.95;0.70;;;26.30;50.90;;;;;;5001957;28;20037;-76
2022/05/26 11:58:40;;;;;;;1.00;0.90;;;26.00;52.20;;;;;;4999287;28;20068;-76
2022/05/26 12:01:25;;;;;;;1.77;0.90;;;26.00;52.00;;;;;;5000880;28;20670;-76
2022/05/26 12:04:04;;;;;;;0.77;0.63;;;25.90;52.10;;;;;;4993834;28;20032;-75
2022/05/26 12:06:41;;;;;;;6.90;1.00;;;26.00;52.10;;;;;;4997753;28;20022;-76
2022/05/26 12:09:11;;;;;;;;;;;26.00;51.70;;;;;;5002274;28;20029;-76
2022/05/26 12:12:27;;;;;;;2.55;0.85;;;26.00;52.20;;;;;;4998096;28;20596;-76
2022/05/26 12:14:58;;;;;;;2.00;0.70;;;25.80;52.70;;;;;;4995499;28;20018;-76
2022/05/26 12:17:45;;;;;;;2.78;0.85;;;25.80;52.70;;;;;;4999718;28;20018;-76
2022/05/26 12:20:11;;;;;;;;;;;25.70;52.70;;;;;;5002430;28;20454;-76
2022/05/26 12:22:41;;;;;;;0.70;0.70;;;25.60;52.00;;;;;;4996139;28;19909;-76
2022/05/26 12:25:16;;;;;;;0.57;0.57;;;25.70;52.60;;;;;;4999448;28;20519;-77
2022/05/26 12:27:51;;;;;;;0.98;0.60;;;25.80;53.00;;;;;;4992036;28;20127;-76
2022/05/26 12:30:49;;;;;;;0.70;0.70;;;25.80;53.00;;;;;;4999159;28;20337;-75
2022/05/26 12:33:20;;;;;;;;;;;25.80;54.00;;;;;;4999100;28;20022;-76
2022/05/26 12:36:24;;;;;;;1.15;1.00;;;25.70;53.90;;;;;;4995783;28;19913;-75
2022/05/26 12:39:19;;;;;;;0.70;0.63;;;25.50;55.00;;;;;;4993392;28;20549;-76
2022/05/26 12:42:23;;;;;;;0.65;0.65;;;25.50;54.70;;;;;;4996299;28;20030;-76
2022/05/26 12:44:56;;;;;;;1.75;0.70;;;25.60;53.80;;;;;;4994276;28;20745;-76
2022/05/26 12:47:32;;;;;;;0.70;0.70;;;25.60;55.40;;;;;;4997809;28;20029;-76
2022/05/26 12:50:19;;;;;;;0.75;0.60;;;25.80;54.60;;;;;;5001233;28;20721;-76
2022/05/26 12:52:57;;;;;;;0.82;0.70;;;25.80;53.20;;;;;;4993252;28;20025;-76
2022/05/26 12:55:57;;;;;;;1.05;0.60;;;25.80;53.20;;;;;;4997538;28;20029;-76
2022/05/26 12:58:34;;;;;;;0.95;0.80;;;25.70;52.90;;;;;;5000612;28;20107;-75
2022/05/26 13:01:04;;;;;;;0.80;0.70;;;25.80;53.00;;;;;;4999408;28;20022;-76
2022/05/26 13:03:43;;;;;;;0.70;0.70;;;25.60;54.10;;;;;;5000575;28;20033;-75
2022/05/26 13:06:26;;;;;;;0.77;0.77;;;25.60;54.80;;;;;;4999299;28;20061;-75
2022/05/26 13:09:21;;;;;;;1.60;0.65;;;25.60;53.50;;;;;;4994967;28;20478;-76
2022/05/26 13:11:47;;;;;;;1.17;0.70;;;25.60;54.00;;;;;;4992765;28;20025;-76
2022/05/26 13:14:32;;;;;;;;;;;25.70;53.80;;;;;;5000363;28;20022;-75
2022/05/26 13:17:15;;;;;;;4.18;1.08;;;25.70;54.00;;;;;;4997511;28;19905;-76
2022/05/26 13:19:50;;;;;;;2.25;0.68;;;25.90;54.20;;;;;;4996782;28;20026;-76
2022/05/26 13:22:36;;;;;;;3.85;0.90;;;25.90;53.40;;;;;;4995825;28;20062;-75
2022/05/26 13:25:15;;;;;;;0.90;0.60;;;25.80;52.90;;;;;;4999515;28;20036;-76
2022/05/26 13:27:49;;;;;;;2.05;1.20;;;25.50;53.80;;;;;;4995467;28;20022;-76
2022/05/26 13:33:09;;;;;;;;;;;25.30;53.60;;;;;;5000078;28;20084;-77
2022/05/26 13:35:49;;;;;;;1.45;0.80;;;25.30;54.50;;;;;;4995970;28;19909;-76
2022/05/26 13:38:22;;;;;;;1.50;1.13;;;25.40;54.60;;;;;;4995917;28;20112;-76
2022/05/26 13:40:49;;;;;;;1.55;0.90;;;25.60;54.60;;;;;;4996009;28;20080;-76
2022/05/26 13:43:16;;;;;;;0.75;0.47;;;25.70;53.70;;;;;;5000271;28;20158;-76
2022/05/26 13:45:45;;;;;;;2.25;0.88;;;25.80;53.60;;;;;;4992139;28;20030;-77
2022/05/26 13:48:32;;;;;;;1.05;0.77;;;25.80;54.50;;;;;;4998671;28;20029;-76
2022/05/26 13:51:20;;;;;;;1.38;0.82;;;25.60;53.80;;;;;;4994306;28;20046;-76
2022/05/26 13:53:55;;;;;;;2.72;0.85;;;25.50;54.00;;;;;;4992142;28;20311;-76
2022/05/26 13:56:43;;;;;;;0.80;0.70;;;25.40;54.60;;;;;;4998303;28;20048;-76
2022/05/26 13:59:16;;;;;;;1.40;0.90;;;25.40;55.00;;;;;;4998535;28;20072;-76
2022/05/26 14:02:19;;;;;;;0.98;0.70;;;25.30;55.10;;;;;;4993706;28;20117;-76
2022/05/26 14:05:00;;;;;;;2.53;0.80;;;25.20;55.20;;;;;;4991642;28;20038;-76
2022/05/26 14:07:42;;;;;;;1.30;0.85;;;25.00;55.00;;;;;;4998537;28;20026;-76
2022/05/26 14:10:22;;;;;;;2.83;0.90;;;25.00;55.20;;;;;;4997500;28;20033;-77
2022/05/26 14:13:05;;;;;;;1.30;0.70;;;25.10;55.10;;;;;;4990621;28;20026;-76
2022/05/26 14:15:50;;;;;;;1.48;0.63;;;25.10;54.50;;;;;;4996756;28;20105;-76
2022/05/26 14:18:37;;;;;;;3.30;0.73;;;25.10;55.80;;;;;;4996026;28;20470;-76
2022/05/26 14:21:27;;;;;;;1.48;0.93;;;25.00;55.40;;;;;;5000326;28;20045;-76
2022/05/26 14:23:57;;;;;;;1.98;0.80;;;24.90;55.30;;;;;;4994732;28;20068;-76
2022/05/26 14:26:44;;;;;;;3.28;0.70;;;24.80;55.30;;;;;;4998121;28;20014;-76
2022/05/26 14:29:16;;;;;;;1.17;0.80;;;25.00;56.10;;;;;;5000087;28;20018;-76